Latest Weather Observations for Fortescue Dave Forrest

IDW60801

Issued at 10:03 pm WST Tuesday 12 December 2017 (issued every 30 minutes, with the page automatically refreshed every 10 minutes)

About weather observations | Map of weather stations | Latest weather observations for WA | Other Formats
Station Details ID: 505056 Name: FORTESCUE DAVE FORREST Lat: -22.29 Lon: 119.43 Height: 474.6 m
Data from the previous 72 hours. | See also: Recent months for locations in Western Australia
Date/Time
WST
Temp
°C
App
Temp
°C
Dew
Point
°C
Rel
Hum
%
Delta-T
°C
Wind Press
QNH
hPa
Press
MSL
hPa
Rain since
9am
mm
Dir  Spd
km/h
Gust
km/h
Spd
kts
Gust
kts
12/10:00pm 31.7 27.9 12.5 31 11.6 NW 24 30 13 16 1011.6 1007.6 0.0
12/09:30pm 32.0 28.7 11.7 28 12.1 NW 20 26 11 14 1011.6 1007.6 0.0
12/09:00pm 32.4 29.3 11.6 28 12.4 NNW 19 24 10 13 1011.4 1007.4 0.0
12/08:30pm 33.2 29.9 11.7 27 12.9 NW 20 28 11 15 1011.1 1007.2 0.0
12/08:00pm 33.6 29.7 10.9 25 13.5 NW 22 32 12 17 1010.9 1007.0 0.0
12/07:30pm 34.1 30.2 10.7 24 13.9 NW 22 30 12 16 1010.6 1006.7 0.0
12/07:00pm 34.6 30.4 11.1 24 14.1 NW 24 32 13 17 1010.3 1006.3 0.0
12/06:30pm 35.3 30.7 11.0 23 14.6 NW 26 41 14 22 1010.0 1006.0 0.0
12/06:00pm 36.0 30.6 10.9 22 15.1 NW 30 44 16 24 1009.8 1005.8 0.0
12/05:30pm 36.8 32.0 11.6 22 15.3 WNW 28 43 15 23 1009.7 1005.7 0.0
12/05:00pm 37.2 31.9 11.2 21 15.8 NW 30 43 16 23 1009.5 1005.5 0.0
12/04:30pm 37.6 32.4 11.5 21 15.9 NW 30 50 16 27 1009.5 1005.5 0.0
12/04:12pm 37.8 32.6 11.7 21 15.9 NW 30 48 16 26 1009.6 1005.6 0.0
12/04:00pm 37.8 32.4 11.0 20 16.2 NW 30 46 16 25 1009.6 1005.6 0.0
12/03:34pm 37.9 32.6 11.1 20 16.2 NW 30 48 16 26 1009.7 1005.7 0.0
12/03:30pm 38.3 32.5 11.4 20 16.4 NW 33 48 18 26 1009.7 1005.7 0.0
12/03:00pm 37.9 32.2 11.1 20 16.3 WNW 32 44 17 24 1010.0 1006.0 0.0
12/02:30pm 38.7 32.9 10.9 19 16.9 NW 32 46 17 25 1010.3 1006.3 0.0
12/02:05pm 37.7 32.5 11.6 21 15.9 NW 30 50 16 27 1010.4 1006.4 0.0
12/02:00pm 38.0 32.3 11.1 20 16.3 WNW 32 46 17 25 1010.6 1006.7 0.0
12/01:38pm 38.2 33.3 11.3 20 16.4 WNW 28 46 15 25 1010.7 1006.8 0.0
12/01:30pm 38.2 33.3 11.3 20 16.4 NW 28 41 15 22 1010.9 1007.0 0.0
12/01:17pm 38.2 33.5 12.0 21 16.1 WNW 28 52 15 28 1010.8 1006.9 0.0
12/01:00pm 37.9 32.6 12.5 22 15.7 NW 32 44 17 24 1011.1 1007.2 0.0
12/12:30pm 36.9 32.3 12.4 23 15.1 NW 28 43 15 23 1011.6 1007.6 0.0
12/12:00pm 37.2 32.3 12.6 23 15.2 NW 30 50 16 27 1011.9 1007.9 0.0
12/11:58am 36.7 31.7 12.2 23 15.0 NW 30 50 16 27 1011.8 1007.8 0.0
12/11:30am 37.7 33.5 12.3 22 15.6 WNW 26 43 14 23 1012.2 1008.2 0.0
12/11:06am 36.8 32.0 11.6 22 15.3 NW 28 52 15 28 1012.2 1008.2 0.0
12/11:00am 36.5 31.8 12.0 23 15.0 NW 28 41 15 22 1012.4 1008.4 0.0
12/10:30am 35.6 31.3 11.9 24 14.4 NW 26 37 14 20 1012.8 1008.9 0.0
12/10:00am 34.4 31.8 13.3 28 13.0 NW 19 28 10 15 1013.2 1009.3 0.0
12/09:30am 33.4 31.7 13.5 30 12.3 WNW 15 22 8 12 1013.5 1009.5 0.0
12/09:00am 32.6 30.7 14.2 32 11.4 W 17 26 9 14 1013.8 1009.8 0.0
12/08:30am 31.8 30.2 14.9 36 10.6 W 17 22 9 12 1014.0 1010.0 0.0
12/08:00am 30.3 29.2 15.2 40 9.5 WNW 15 22 8 12 1014.2 1010.2 0.0
12/07:30am 29.2 28.2 14.6 41 9.0 W 13 20 7 11 1014.3 1010.3 0.0
12/07:00am 27.9 26.9 14.5 44 8.2 WNW 13 17 7 9 1014.3 1010.3 0.0
12/06:30am 26.8 25.5 14.9 48 7.3 WNW 15 20 8 11 1013.9 1009.9 0.0
12/06:00am 25.4 25.2 15.7 55 6.0 WNW 11 15 6 8 1013.7 1009.7 0.0
12/05:30am 25.1 24.9 15.7 56 5.8 WNW 11 15 6 8 1013.5 1009.5 0.0
12/05:00am 25.0 24.4 15.6 56 5.8 WNW 13 17 7 9 1013.1 1009.2 0.0
12/04:30am 24.9 25.5 15.8 57 5.6 NW 7 9 4 5 1012.8 1008.9 0.0
12/04:00am 25.5 25.0 15.8 55 6.0 WNW 13 19 7 10 1012.5 1008.6 0.0
12/03:30am 25.6 25.1 15.9 55 6.0 WNW 13 19 7 10 1012.3 1008.3 0.0
12/03:00am 25.6 26.0 16.2 56 5.9 WNW 9 15 5 8 1012.2 1008.2 0.0
12/02:30am 25.7 25.3 16.3 56 5.9 WNW 13 17 7 9 1012.2 1008.2 0.0
12/02:00am 25.9 25.7 16.7 57 5.8 WNW 13 17 7 9 1012.3 1008.3 0.0
12/01:30am 26.6 26.1 16.8 55 6.2 WNW 15 20 8 11 1012.5 1008.6 0.0
12/01:00am 27.0 26.1 16.9 54 6.4 WNW 17 22 9 12 1012.5 1008.6 0.0
12/12:30am 27.5 26.2 16.8 52 6.8 NW 19 24 10 13 1012.6 1008.7 0.0
12/12:00am 28.1 26.8 16.7 50 7.2 NW 19 28 10 15 1012.8 1008.9 0.0
 
Date/Time
WST
Temp
°C
App
Temp
°C
Dew
Point
°C
Rel
Hum
%
Delta-T
°C
Wind Press
QNH
hPa
Press
MSL
hPa
Rain since
9am
mm
Dir  Spd
km/h
Gust
km/h
Spd
kts
Gust
kts
11/11:30pm 28.7 26.8 16.6 48 7.7 NW 22 32 12 17 1013.1 1009.2 0.0
11/11:00pm 29.2 26.4 16.4 46 8.1 NW 26 33 14 18 1013.5 1009.5 0.0
11/10:30pm 29.9 27.5 16.3 43 8.6 NW 24 33 13 18 1013.6 1009.6 0.0
11/10:00pm 30.6 28.3 15.8 40 9.4 NW 22 33 12 18 1013.6 1009.6 0.0
11/09:30pm 31.4 29.2 15.0 37 10.3 NW 20 30 11 16 1013.3 1009.4 0.0
11/09:00pm 32.2 28.9 13.9 33 11.3 NW 24 30 13 16 1013.0 1009.1 0.0
11/08:30pm 33.0 29.0 13.1 30 12.2 NW 26 39 14 21 1012.7 1008.8 0.0
11/08:00pm 33.7 30.0 12.7 28 12.8 NW 24 32 13 17 1012.5 1008.6 0.0
11/07:30pm 34.0 31.5 12.4 27 13.1 NW 17 22 9 12 1012.3 1008.3 0.0
11/07:00pm 34.7 31.3 12.4 26 13.6 NW 22 32 12 17 1011.9 1007.9 0.0
11/06:30pm 35.3 30.9 11.7 24 14.3 NW 26 35 14 19 1011.5 1007.5 0.0
11/06:00pm 36.0 31.0 12.3 24 14.5 NW 30 43 16 23 1011.3 1007.3 0.0
11/05:30pm 36.6 32.3 12.1 23 15.0 NW 26 39 14 21 1010.9 1007.0 0.0
11/05:00pm 37.0 32.6 11.8 22 15.4 NNW 26 39 14 21 1010.6 1006.7 0.0
11/04:30pm 37.1 31.6 11.8 22 15.4 NW 32 50 17 27 1010.6 1006.7 0.0
11/04:02pm 37.0 32.1 12.4 23 15.1 NNW 30 48 16 26 1010.6 1006.7 0.0
11/04:00pm 37.3 32.1 12.7 23 15.2 NW 32 48 17 26 1010.6 1006.7 0.0
11/03:35pm 38.2 33.3 12.7 21 15.8 NW 30 50 16 27 1010.5 1006.6 0.0
11/03:30pm 38.6 34.3 13.1 22 15.9 NNW 28 41 15 22 1010.5 1006.6 0.0
11/03:03pm 37.3 32.3 13.3 23 15.0 NW 32 50 17 27 1010.6 1006.7 0.0
11/03:00pm 37.5 32.3 13.5 24 15.0 NNW 33 50 18 27 1010.6 1006.7 0.0
11/02:39pm 37.8 32.5 13.1 23 15.4 NNW 33 52 18 28 1010.8 1006.9 0.0
11/02:30pm 37.7 32.2 12.3 22 15.6 NW 33 48 18 26 1010.9 1007.0 0.0
11/02:11pm 37.5 32.5 12.2 22 15.6 NW 30 52 16 28 1010.8 1006.9 0.0
11/02:00pm 37.7 34.5 14.3 25 14.8 NNW 24 35 13 19 1011.1 1007.2 0.0
11/01:34pm 37.2 33.1 13.9 25 14.7 NNW 28 78 15 42 1011.4 1007.4 0.0
11/01:30pm 37.1 33.4 13.8 25 14.6 NW 26 78 14 42 1011.5 1007.5 0.0
11/01:27pm 37.2 33.7 14.5 26 14.4 NNW 26 78 14 42 1011.3 1007.3 0.0
11/01:19pm 37.2 33.3 14.5 26 14.4 NNW 28 46 15 25 1011.6 1007.6 0.0
11/01:00pm 37.7 34.9 14.3 25 14.8 NW 22 37 12 20 1011.9 1007.9 0.0
11/12:35pm 37.6 33.4 13.6 24 15.1 NW 28 46 15 25 1012.4 1008.4 0.0
11/12:30pm 36.3 32.9 13.7 25 14.1 NW 24 39 13 21 1012.4 1008.4 0.0
11/12:00pm 35.7 33.3 15.4 29 13.0 NW 22 41 12 22 1012.8 1008.9 0.0
11/11:30am 34.8 32.1 15.7 32 12.2 NNW 24 35 13 19 1013.1 1009.2 0.0
11/11:00am 34.5 32.9 15.9 33 11.9 N 19 33 10 18 1013.6 1009.6 0.0
11/10:30am 34.9 34.5 16.2 32 12.1 N 13 32 7 17 1013.9 1009.9 0.0
11/10:00am 33.8 33.6 15.7 33 11.5 NNW 11 24 6 13 1014.2 1010.2 0.0
11/09:30am 33.3 34.0 16.2 36 11.0 NNW 7 20 4 11 1014.4 1010.5 0.0
11/09:00am 31.5 31.2 15.5 38 10.1 NNE 11 19 6 10 1014.7 1010.8 0.0
11/08:30am 30.5 31.3 15.8 41 9.3 E 6 11 3 6 1015.0 1011.1 0.0
11/08:00am 29.2 31.0 16.4 46 8.1 SW 2 9 1 5 1015.1 1011.2 0.0
11/07:30am 28.4 30.4 17.0 50 7.3 NW 2 7 1 4 1015.2 1011.3 0.0
11/07:00am 27.5 29.6 17.1 53 6.6 NE 2 6 1 3 1015.0 1011.1 0.0
11/06:30am 26.2 27.9 18.1 61 5.2 NNE 6 9 3 5 1014.6 1010.7 0.0
11/06:00am 25.1 26.8 18.1 65 4.5 NE 6 7 3 4 1014.3 1010.3 0.0
11/05:30am 24.7 26.3 17.9 66 4.3 NE 6 7 3 4 1013.8 1009.8 0.0
11/05:00am 24.6 25.8 17.3 64 4.6 NW 7 9 4 5 1013.0 1009.1 0.0
11/04:30am 25.0 25.1 17.5 63 4.8 WNW 13 15 7 8 1012.6 1008.7 0.0
11/04:00am 25.1 25.7 17.6 63 4.8 WNW 11 15 6 8 1012.4 1008.4 0.0
11/03:30am 25.2 25.7 17.4 62 5.0 WNW 11 15 6 8 1012.4 1008.4 0.0
11/03:00am 25.4 25.7 17.1 60 5.3 WNW 11 13 6 7 1012.5 1008.6 0.0
11/02:30am 25.8 26.1 16.9 58 5.6 WNW 11 15 6 8 1012.5 1008.6 0.0
11/02:00am 26.2 25.9 16.4 54 6.2 NW 13 15 7 8 1012.6 1008.7 0.0
11/01:30am 26.7 26.3 16.3 53 6.5 WNW 13 15 7 8 1012.8 1008.9 0.0
11/01:00am 27.2 26.4 16.2 51 6.9 NW 15 19 8 10 1013.0 1009.1 0.0
11/12:30am 27.6 27.4 16.6 51 7.0 NW 13 19 7 10 1013.2 1009.3 0.0
11/12:00am 28.0 27.4 16.6 50 7.2 WNW 15 20 8 11 1013.6 1009.6 0.0
 
Date/Time
WST
Temp
°C
App
Temp
°C
Dew
Point
°C
Rel
Hum
%
Delta-T
°C
Wind Press
QNH
hPa
Press
MSL
hPa
Rain since
9am
mm
Dir  Spd
km/h
Gust
km/h
Spd
kts
Gust
kts
10/11:30pm 28.5 27.5 16.7 48 7.5 WNW 17 24 9 13 1013.7 1009.7 0.0
10/11:00pm 28.9 27.6 16.8 48 7.7 WNW 19 28 10 15 1013.8 1009.8 0.0
10/10:30pm 29.5 28.2 16.7 46 8.2 NW 19 26 10 14 1013.9 1009.9 0.0
10/10:00pm 30.1 27.7 16.5 44 8.7 NW 24 30 13 16 1013.9 1009.9 0.0
10/09:30pm 30.8 29.2 16.4 42 9.2 NW 20 26 11 14 1013.9 1009.9 0.0
10/09:00pm 31.4 28.5 16.2 40 9.7 NW 26 35 14 19 1013.8 1009.8 0.0
10/08:30pm 32.3 29.4 16.2 38 10.3 NW 26 33 14 18 1013.5 1009.5 0.0
10/08:00pm 33.0 30.4 15.9 35 10.9 NNW 24 33 13 18 1013.0 1009.1 0.0
10/07:30pm 33.5 31.1 15.5 34 11.4 NW 22 30 12 16 1012.5 1008.6 0.0
10/07:00pm 34.2 32.1 16.1 34 11.6 NW 22 32 12 17 1012.0 1008.0 0.0
10/06:30pm 34.8 31.2 15.2 31 12.5 NW 28 37 15 20 1011.5 1007.5 0.0
10/06:00pm 35.4 32.0 15.7 31 12.6 NNW 28 41 15 22 1010.9 1007.0 0.0
10/05:30pm 35.7 32.5 16.4 31 12.5 NNW 28 37 15 20 1010.5 1006.6 0.0
10/05:00pm 36.0 32.8 16.2 31 12.8 NNW 28 37 15 20 1010.4 1006.4 0.0
10/04:30pm 36.5 33.6 16.1 29 13.2 N 26 37 14 20 1010.3 1006.3 0.0
10/04:00pm 36.7 32.9 14.6 26 14.0 NNW 28 43 15 23 1010.4 1006.4 0.0
10/03:30pm 36.7 33.3 15.8 29 13.5 NNW 28 44 15 24 1010.4 1006.4 0.0
10/03:00pm 37.3 32.9 15.2 27 14.2 N 32 44 17 24 1010.4 1006.4 0.0
10/02:32pm 37.6 34.3 16.0 28 14.0 N 28 46 15 25 1010.6 1006.7 0.0
10/02:30pm 37.2 34.3 16.2 29 13.6 N 26 46 14 25 1010.6 1006.7 0.0
10/02:00pm 37.2 34.0 16.2 29 13.6 N 28 48 15 26 1010.7 1006.8 0.0
10/01:30pm 37.4 33.8 15.2 26 14.2 N 28 43 15 23 1010.9 1007.0 0.0
10/01:06pm 36.7 33.1 15.2 27 13.7 NNW 28 46 15 25 1011.0 1007.1 0.0
10/01:00pm 36.5 33.0 15.6 29 13.4 N 28 39 15 21 1011.1 1007.2 0.0
10/12:30pm 37.0 34.4 16.0 28 13.6 N 24 39 13 21 1011.1 1007.2 0.0
10/12:00pm 35.9 33.0 15.1 29 13.3 NNW 24 37 13 20 1011.4 1007.4 0.0
10/11:30am 36.4 33.5 16.0 29 13.2 N 26 39 14 21 1011.6 1007.6 0.0
10/11:25am 36.3 33.7 15.9 29 13.1 N 24 39 13 21 1011.6 1007.6 0.0
10/11:00am 35.4 33.9 16.7 33 12.2 NNW 20 33 11 18 1011.8 1007.8 0.0
10/10:30am 34.3 32.2 17.1 36 11.2 N 24 32 13 17 1012.3 1008.3 0.0
10/10:00am 33.6 32.2 16.9 37 10.8 NNW 20 33 11 18 1012.7 1008.8 0.0
10/09:30am 33.2 32.5 17.4 39 10.3 N 17 30 9 16 1012.8 1008.9 0.0
10/09:00am 32.7 31.6 17.7 40 9.8 NNE 20 32 11 17 1013.0 1009.1 0.0
10/08:30am 31.7 30.7 17.6 43 9.2 NNE 19 26 10 14 1013.0 1009.1 0.0
10/08:00am 30.8 30.4 18.8 48 7.9 N 19 26 10 14 1012.8 1008.9 0.0
10/07:30am 29.8 29.3 19.2 53 7.0 N 20 30 11 16 1012.7 1008.8 0.0
10/07:00am 29.4 28.9 19.1 54 6.8 NNE 20 24 11 13 1012.5 1008.6 0.0
10/06:30am 28.1 29.3 19.1 58 5.9 N 11 19 6 10 1011.9 1007.9 0.0
10/06:00am 27.3 29.0 19.4 62 5.2 N 9 13 5 7 1011.4 1007.4 0.0
10/05:30am 27.6 29.1 18.9 59 5.7 N 9 11 5 6 1011.0 1007.1 0.0
10/05:00am 27.8 28.0 18.5 57 6.1 NNE 15 20 8 11 1010.8 1006.9 0.0
10/04:30am 28.4 29.8 17.9 53 6.8 NW 7 9 4 5 1010.1 1006.1 0.0
10/04:00am 28.8 30.2 17.7 51 7.2 NW 7 9 4 5 1010.1 1006.1 0.0
10/03:30am 29.1 29.7 17.6 50 7.4 NW 11 13 6 7 1010.1 1006.1 0.0
10/03:00am 29.4 30.3 17.6 49 7.6 WNW 9 13 5 7 1009.9 1005.9 0.0
10/02:30am 29.5 29.9 17.3 47 7.9 WNW 11 15 6 8 1009.7 1005.7 0.0
10/02:00am 29.3 29.8 17.5 49 7.6 WNW 11 17 6 9 1009.5 1005.5 0.0
10/01:30am 29.2 29.7 17.4 49 7.6 WNW 11 17 6 9 1009.7 1005.7 0.0
10/01:00am 29.6 29.9 17.1 47 8.0 NW 11 17 6 9 1009.8 1005.8 0.0
10/12:30am 30.0 30.0 17.1 46 8.3 WNW 13 17 7 9 1010.1 1006.1 0.0
10/12:00am 30.7 30.6 17.0 43 8.8 WNW 13 17 7 9 1010.2 1006.2 0.0
 
Date/Time
WST
Temp
°C
App
Temp
°C
Dew
Point
°C
Rel
Hum
%
Delta-T
°C
Wind Press
QNH
hPa
Press
MSL
hPa
Rain since
9am
mm
Dir  Spd
km/h
Gust
km/h
Spd
kts
Gust
kts
09/11:30pm 31.5 31.4 17.0 41 9.4 WNW 13 19 7 10 1010.4 1006.4 0.0
09/11:00pm 32.1 31.6 16.8 40 9.9 WNW 15 20 8 11 1010.6 1006.7 0.0
09/10:30pm 32.7 31.8 16.9 38 10.2 WNW 17 26 9 14 1010.6 1006.7 0.0

Other Formats:

Comma delimited format used in spreadsheet applications
http://www.bom.gov.au/fwo/IDW60801/IDW60801.99736.axf

JavaScript Object Notation format (JSON) in row-major order
http://www.bom.gov.au/fwo/IDW60801/IDW60801.99736.json